Time;durP1;ratioP1;P1;durP2;ratioP2;P2;SDS_P1;SDS_P2;PMS_P1;PMS_P2;Temp;Humidity;BMP_temperature;BMP_pressure;BME280_temperature;BME280_humidity;BME280_pressure;Samples;Min_cycle;Max_cycle;Signal;HPM_P1;HPM_P2
2021/03/15 00:00:07;;;;;;;;;;;;;;;20.51;38.70;101173.06;3106650;27;115662;-59
2021/03/15 00:01:38;;;;;;;;;;;;;;;20.52;38.88;101172.78;3089932;27;116852;-59
2021/03/15 00:03:10;;;;;;;;;;;;;;;20.51;38.85;101171.09;3108854;27;116920;-59
2021/03/15 00:04:59;;;;;;;;;;;;;;;20.49;38.86;101170.56;3081461;28;115974;-59
2021/03/15 00:06:30;;;;;;;;;;;;;;;20.47;38.82;101167.25;3107166;27;115795;-59
2021/03/15 00:08:02;;;;;;;;;;;;;;;20.46;38.93;101182.41;3096926;27;117061;-59
2021/03/15 00:09:33;;;;;;;;;;;;;;;20.45;39.00;101177.91;3095230;28;116201;-60
2021/03/15 00:11:04;;;;;;;;;;;;;;;20.44;38.79;101184.69;3093078;28;115888;-60
2021/03/15 00:12:36;;;;;;;;;;;;;;;20.44;38.84;101186.66;3116609;27;116046;-60
2021/03/15 00:14:07;;;;;;;;;;;;;;;20.44;38.78;101186.66;3096651;27;114649;-61
2021/03/15 00:15:38;;;;;;;;;;;;;;;20.40;38.93;101181.63;3097532;28;115850;-60
2021/03/15 00:17:09;;;;;;;;;;;;;;;20.40;38.64;101183.59;3087010;28;114653;-60
2021/03/15 00:18:41;;;;;;;;;;;;;;;20.38;39.06;101185.88;3102315;28;113766;-60
2021/03/15 00:20:13;;;;;;;;;;;;;;;20.39;38.87;101187.56;3095054;28;113971;-60
2021/03/15 00:21:44;;;;;;;;;;;;;;;20.36;39.10;101194.59;3092310;28;113661;-59
2021/03/15 00:23:16;;;;;;;;;;;;;;;20.35;38.91;101180.88;3088541;28;113972;-60
2021/03/15 00:24:47;;;;;;;;;;;;;;;20.33;38.71;101192.41;3109709;27;114336;-60
2021/03/15 00:26:18;;;;;;;;;;;;;;;20.32;38.99;101187.09;3108807;27;113722;-60
2021/03/15 00:27:49;;;;;;;;;;;;;;;20.29;38.83;101187.66;3086961;28;114245;-60
2021/03/15 00:29:21;;;;;;;;;;;;;;;20.28;38.96;101198.06;3086047;28;114151;-60
2021/03/15 00:30:52;;;;;;;;;;;;;;;20.27;38.91;101198.34;3089656;28;113940;-59
2021/03/15 00:32:24;;;;;;;;;;;;;;;20.25;39.35;101192.22;3091073;28;113872;-60
2021/03/15 00:33:55;;;;;;;;;;;;;;;20.26;39.12;101200.31;3090529;28;114222;-60
2021/03/15 00:35:26;;;;;;;;;;;;;;;20.23;39.04;101203.72;3114784;27;113850;-60
2021/03/15 00:36:57;;;;;;;;;;;;;;;20.22;38.85;101206.81;3108451;27;114100;-60
2021/03/15 00:38:29;;;;;;;;;;;;;;;20.20;39.21;101195.91;3100500;28;114058;-60
2021/03/15 00:40:00;;;;;;;;;;;;;;;20.20;39.07;101198.72;3087383;28;115238;-60
2021/03/15 00:41:31;;;;;;;;;;;;;;;20.18;39.10;101197.34;3117141;27;114219;-60
2021/03/15 00:43:02;;;;;;;;;;;;;;;20.15;39.05;101198.78;3097309;27;115558;-60
2021/03/15 00:44:33;;;;;;;;;;;;;;;20.16;39.20;101194.84;3098414;28;115085;-61
2021/03/15 00:46:05;;;;;;;;;;;;;;;20.18;39.58;101203.78;3089243;28;116214;-58
2021/03/15 00:47:36;;;;;;;;;;;;;;;20.17;39.16;101206.91;3108826;27;114969;-60
2021/03/15 00:49:07;;;;;;;;;;;;;;;20.15;39.37;101207.19;3091596;28;114072;-60
2021/03/15 00:50:41;;;;;;;;;;;;;;;20.15;39.21;101206.38;3108497;27;114597;-60
2021/03/15 00:52:12;;;;;;;;;;;;;;;20.11;39.48;101203.34;3102560;27;115000;-59
2021/03/15 00:53:43;;;;;;;;;;;;;;;20.10;39.86;101212.03;3093882;28;114073;-60
2021/03/15 00:55:15;;;;;;;;;;;;;;;20.10;39.54;101212.03;3087456;28;115180;-59
2021/03/15 00:56:46;;;;;;;;;;;;;;;20.06;39.85;101214.59;3111776;27;114561;-60
2021/03/15 00:58:17;;;;;;;;;;;;;;;20.06;39.55;101217.41;3094690;27;115476;-60
2021/03/15 00:59:48;;;;;;;;;;;;;;;20.05;39.69;101220.50;3095086;28;115131;-60
2021/03/15 01:01:19;;;;;;;;;;;;;;;20.04;39.60;101218.81;3088377;28;115778;-60
2021/03/15 01:02:51;;;;;;;;;;;;;;;20.02;39.65;101219.16;3107455;27;115780;-59
2021/03/15 01:04:22;;;;;;;;;;;;;;;20.00;39.77;101224.22;3095087;27;116042;-60
2021/03/15 01:05:56;;;;;;;;;;;;;;;20.02;39.58;101212.69;3112778;27;116266;-60
2021/03/15 01:07:27;;;;;;;;;;;;;;;20.02;39.79;101221.13;3092794;27;116260;-59
2021/03/15 01:08:58;;;;;;;;;;;;;;;20.00;39.78;101213.00;3087995;28;114695;-59
2021/03/15 01:10:29;;;;;;;;;;;;;;;19.99;40.08;101212.16;3106608;27;115840;-59
2021/03/15 01:12:01;;;;;;;;;;;;;;;19.96;39.97;101212.75;3095298;27;115279;-60
2021/03/15 01:13:32;;;;;;;;;;;;;;;19.99;39.97;101205.69;3100621;28;116059;-59
2021/03/15 01:15:06;;;;;;;;;;;;;;;19.95;40.18;101215.84;3092889;28;115775;-59
2021/03/15 01:16:37;;;;;;;;;;;;;;;19.95;40.03;101207.44;3093465;28;115878;-59
2021/03/15 01:18:09;;;;;;;;;;;;;;;19.97;40.26;101216.41;3091207;28;115795;-59
2021/03/15 01:19:40;;;;;;;;;;;;;;;19.95;40.22;101213.03;3087795;28;115869;-59
2021/03/15 01:21:12;;;;;;;;;;;;;;;19.94;40.12;101215.00;3094440;28;115735;-59
2021/03/15 01:22:44;;;;;;;;;;;;;;;19.93;39.97;101204.09;3091599;28;113956;-59
2021/03/15 01:24:15;;;;;;;;;;;;;;;19.92;40.09;101210.84;3088755;28;113883;-59
2021/03/15 01:25:46;;;;;;;;;;;;;;;19.91;40.05;101206.38;3092168;28;113863;-59
2021/03/15 01:27:17;;;;;;;;;;;;;;;19.89;40.08;101205.84;3103662;28;113993;-60
2021/03/15 01:28:48;;;;;;;;;;;;;;;19.88;40.09;101206.97;3083005;28;113903;-60
2021/03/15 01:30:21;;;;;;;;;;;;;;;19.90;40.24;101213.94;3079108;28;113830;-60
2021/03/15 01:31:52;;;;;;;;;;;;;;;19.91;40.16;101221.22;3078396;28;114393;-60
2021/03/15 01:33:24;;;;;;;;;;;;;;;19.89;40.29;101212.28;3091815;28;113825;-59
2021/03/15 01:34:55;;;;;;;;;;;;;;;19.89;40.21;101211.44;3088820;28;114341;-60
2021/03/15 01:36:26;;;;;;;;;;;;;;;19.87;40.48;101211.75;3092691;28;114173;-60
2021/03/15 01:37:57;;;;;;;;;;;;;;;19.86;40.39;101214.81;3092247;28;113945;-59
2021/03/15 01:39:28;;;;;;;;;;;;;;;19.86;40.41;101210.06;3099919;28;113707;-60
2021/03/15 01:41:00;;;;;;;;;;;;;;;19.84;40.68;101212.34;3093784;28;113758;-59
2021/03/15 01:42:31;;;;;;;;;;;;;;;19.83;40.49;101215.44;3096602;28;114064;-60
2021/03/15 01:44:02;;;;;;;;;;;;;;;19.83;40.72;101216.28;3091451;28;115029;-59
2021/03/15 01:45:33;;;;;;;;;;;;;;;19.82;40.48;101230.59;3108007;28;114069;-59
2021/03/15 01:47:04;;;;;;;;;;;;;;;19.81;40.72;101221.31;3116899;27;114748;-60
2021/03/15 01:48:36;;;;;;;;;;;;;;;19.80;40.68;101230.91;3092142;27;114233;-60
2021/03/15 01:50:08;;;;;;;;;;;;;;;19.78;40.92;101227.53;3104018;28;115020;-60
2021/03/15 01:51:39;;;;;;;;;;;;;;;19.79;40.68;101219.97;3091562;28;115151;-60
2021/03/15 01:53:11;;;;;;;;;;;;;;;19.78;40.74;101221.09;3097288;28;115091;-60
2021/03/15 01:54:42;;;;;;;;;;;;;;;19.79;40.80;101225.56;3095709;28;115071;-60
2021/03/15 01:56:13;;;;;;;;;;;;;;;19.77;40.93;101219.41;3089800;28;115104;-60
2021/03/15 01:57:45;;;;;;;;;;;;;;;19.77;40.82;101233.44;3113547;27;114956;-60
2021/03/15 01:59:16;;;;;;;;;;;;;;;19.76;41.05;101229.78;3098011;28;115319;-60
2021/03/15 02:00:48;;;;;;;;;;;;;;;19.77;41.04;101225.03;3095968;28;115157;-60
2021/03/15 02:02:19;;;;;;;;;;;;;;;19.77;41.11;101223.06;3115865;27;114316;-60
2021/03/15 02:03:50;;;;;;;;;;;;;;;19.76;41.41;101204.56;3107320;27;115151;-60
2021/03/15 02:05:22;;;;;;;;;;;;;;;19.77;41.33;101219.41;3097636;28;116383;-60
2021/03/15 02:06:53;;;;;;;;;;;;;;;19.77;41.14;101233.44;3095554;28;115962;-60
2021/03/15 02:08:25;;;;;;;;;;;;;;;19.76;41.22;101231.78;3118604;27;115683;-60
2021/03/15 02:09:56;;;;;;;;;;;;;;;19.75;41.36;101232.91;3096811;27;115604;-60
2021/03/15 02:11:43;;;;;;;;;;;;;;;19.76;41.19;101234.59;3100967;28;115803;-59
2021/03/15 02:13:24;;;;;;;;;;;;;;;19.74;41.41;101231.22;3091758;28;115735;-60
2021/03/15 02:14:55;;;;;;;;;;;;;;;19.73;41.64;101233.19;3083758;28;115817;-60
2021/03/15 02:16:36;;;;;;;;;;;;;;;19.73;41.36;101233.19;3084767;28;115794;-60
2021/03/15 02:18:12;;;;;;;;;;;;;;;19.74;41.23;101232.06;3090784;28;114523;-60
2021/03/15 02:20:02;;;;;;;;;;;;;;;19.72;41.54;101239.09;3093002;28;115573;-60
2021/03/15 02:21:43;;;;;;;;;;;;;;;19.70;41.65;101230.16;3083424;28;118433;-60
2021/03/15 02:23:21;;;;;;;;;;;;;;;19.71;41.40;101240.25;3076695;28;116495;-61
2021/03/15 02:25:02;;;;;;;;;;;;;;;19.69;41.81;101243.34;3083978;28;117642;-59
2021/03/15 02:26:37;;;;;;;;;;;;;;;19.68;41.93;101261.28;3087604;28;117381;-60
2021/03/15 02:28:16;;;;;;;;;;;;;;;19.67;41.62;101251.19;3090012;28;115811;-61
2021/03/15 02:29:48;;;;;;;;;;;;;;;19.67;41.62;101256.78;3085481;28;114254;-60
2021/03/15 02:31:29;;;;;;;;;;;;;;;19.66;41.78;101257.13;3109307;27;113845;-60
2021/03/15 02:33:10;;;;;;;;;;;;;;;19.64;41.57;101260.19;3091164;28;113719;-61
2021/03/15 02:34:50;;;;;;;;;;;;;;;19.64;41.52;101267.78;3088450;28;113764;-60
2021/03/15 02:36:23;;;;;;;;;;;;;;;19.63;41.53;101266.09;3086558;28;113795;-61
2021/03/15 02:37:56;;;;;;;;;;;;;;;19.62;41.59;101258.84;3086231;28;114152;-60
2021/03/15 02:39:29;;;;;;;;;;;;;;;19.60;41.54;101272.28;3101151;28;113997;-60
2021/03/15 02:41:02;;;;;;;;;;;;;;;19.60;41.84;101259.13;3112676;27;114266;-60
2021/03/15 02:42:35;;;;;;;;;;;;;;;19.60;41.47;101259.13;3100476;27;113836;-60
2021/03/15 02:44:08;;;;;;;;;;;;;;;19.59;41.60;101260.25;3121608;27;114046;-60
2021/03/15 02:45:40;;;;;;;;;;;;;;;19.57;41.51;101265.31;3100929;28;114134;-60
2021/03/15 02:47:12;;;;;;;;;;;;;;;19.58;41.38;101258.56;3099050;28;113914;-60
2021/03/15 02:48:44;;;;;;;;;;;;;;;19.57;41.64;101251.31;3096419;28;114048;-60
2021/03/15 02:50:16;;;;;;;;;;;;;;;19.56;41.75;101254.41;3093702;28;113589;-60
2021/03/15 02:51:50;;;;;;;;;;;;;;;19.56;41.43;101254.41;3087784;28;116410;-60
2021/03/15 02:53:22;;;;;;;;;;;;;;;19.54;41.65;101252.72;3116435;27;114338;-60
2021/03/15 02:54:54;;;;;;;;;;;;;;;19.54;41.70;101258.31;3104864;27;115460;-60
2021/03/15 02:56:26;;;;;;;;;;;;;;;19.52;41.67;101251.34;3094825;28;114093;-60
2021/03/15 02:57:57;;;;;;;;;;;;;;;19.51;41.58;101250.50;3086926;28;115240;-59
2021/03/15 02:59:29;;;;;;;;;;;;;;;19.52;41.82;101256.97;3086699;28;114655;-60
2021/03/15 03:01:02;;;;;;;;;;;;;;;19.50;42.08;101267.63;3097292;28;115058;-60
2021/03/15 03:02:35;;;;;;;;;;;;;;;19.51;41.99;101258.91;3088732;28;113994;-60
2021/03/15 03:04:08;;;;;;;;;;;;;;;19.52;42.16;101260.59;3086517;28;116518;-60
2021/03/15 03:05:40;;;;;;;;;;;;;;;19.49;42.27;101263.13;3100809;28;115048;-60
2021/03/15 03:07:21;;;;;;;;;;;;;;;19.51;42.13;101272.09;3089441;28;115999;-60
2021/03/15 03:08:54;;;;;;;;;;;;;;;19.48;42.32;101267.94;3109592;27;114655;-60
2021/03/15 03:10:25;;;;;;;;;;;;;;;19.48;42.08;101272.69;3094022;28;114976;-59
2021/03/15 03:11:57;;;;;;;;;;;;;;;19.48;42.33;101261.47;3091962;28;115078;-60
2021/03/15 03:13:30;;;;;;;;;;;;;;;19.47;42.29;101265.41;3104107;27;116114;-60
2021/03/15 03:15:05;;;;;;;;;;;;;;;19.47;42.51;101273.81;3103721;27;115812;-59
2021/03/15 03:16:37;;;;;;;;;;;;;;;19.48;42.32;101262.31;3087097;28;115679;-61
2021/03/15 03:18:13;;;;;;;;;;;;;;;19.46;42.74;101267.38;3086147;28;116078;-59
2021/03/15 03:19:46;;;;;;;;;;;;;;;19.45;42.62;101271.28;3110119;27;115750;-59
2021/03/15 03:21:20;;;;;;;;;;;;;;;19.45;42.64;101270.47;3088108;28;115105;-60
2021/03/15 03:22:52;;;;;;;;;;;;;;;19.44;42.69;101268.81;3092065;28;115653;-60
2021/03/15 03:24:23;;;;;;;;;;;;;;;19.44;42.84;101268.81;3085781;28;115697;-59
2021/03/15 03:25:55;;;;;;;;;;;;;;;19.43;42.64;101275.50;3110039;28;114687;-60
2021/03/15 03:27:26;;;;;;;;;;;;;;;19.43;42.65;101273.56;3076597;28;116186;-59
2021/03/15 03:28:58;;;;;;;;;;;;;;;19.44;43.04;101283.63;3079476;28;116009;-59
2021/03/15 03:30:31;;;;;;;;;;;;;;;19.44;42.92;101275.22;3106227;27;115971;-59
2021/03/15 03:32:02;;;;;;;;;;;;;;;19.43;43.10;101276.38;3097223;28;116160;-60
2021/03/15 03:33:35;;;;;;;;;;;;;;;19.42;43.20;101279.44;3087678;28;115826;-60
2021/03/15 03:35:07;;;;;;;;;;;;;;;19.40;43.31;101276.91;3107932;27;114219;-60
2021/03/15 03:36:39;;;;;;;;;;;;;;;19.40;43.22;101278.88;3093085;28;113861;-60
2021/03/15 03:38:11;;;;;;;;;;;;;;;19.39;43.24;101285.63;3097925;28;113685;-59
2021/03/15 03:39:42;;;;;;;;;;;;;;;19.39;43.29;101289.28;3083095;28;114042;-60
2021/03/15 03:41:13;;;;;;;;;;;;;;;19.39;42.99;101291.22;3086313;28;113906;-60
2021/03/15 03:42:47;;;;;;;;;;;;;;;19.38;43.17;101296.00;3088721;28;113983;-60
2021/03/15 03:44:18;;;;;;;;;;;;;;;19.39;43.38;101302.44;3084417;28;114002;-59
2021/03/15 03:45:49;;;;;;;;;;;;;;;19.39;43.14;101305.25;3088635;28;114009;-60
2021/03/15 03:47:21;;;;;;;;;;;;;;;19.35;43.32;101302.16;3089498;28;113788;-59
2021/03/15 03:48:52;;;;;;;;;;;;;;;19.37;43.07;101304.69;3110194;28;113881;-59
2021/03/15 03:50:26;;;;;;;;;;;;;;;19.38;43.03;101309.16;3088017;28;113989;-59
2021/03/15 03:51:59;;;;;;;;;;;;;;;19.36;43.28;101314.22;3085853;28;113954;-60
2021/03/15 03:53:36;;;;;;;;;;;;;;;19.35;43.23;101316.16;3094557;28;113780;-60
2021/03/15 03:55:08;;;;;;;;;;;;;;;19.35;42.93;101306.97;3112920;27;113683;-60
2021/03/15 03:56:43;;;;;;;;;;;;;;;19.34;43.28;101317.31;3097234;28;113718;-60
2021/03/15 03:58:17;;;;;;;;;;;;;;;19.34;43.20;101324.88;3086050;28;115080;-60
2021/03/15 03:59:49;;;;;;;;;;;;;;;19.33;43.23;101320.41;3094844;28;114969;-60
2021/03/15 04:01:23;;;;;;;;;;;;;;;19.33;43.20;101320.41;3092006;28;116671;-60
2021/03/15 04:02:59;;;;;;;;;;;;;;;19.30;43.02;101313.44;3095227;28;115152;-60
2021/03/15 04:04:33;;;;;;;;;;;;;;;19.30;43.02;101321.00;3085539;28;115985;-59
2021/03/15 04:06:06;;;;;;;;;;;;;;;19.29;43.33;101330.53;3086324;28;115144;-59
2021/03/15 04:07:43;;;;;;;;;;;;;;;19.29;43.09;101331.38;3086955;28;115079;-59
2021/03/15 04:09:15;;;;;;;;;;;;;;;19.31;43.12;101333.84;3074694;28;115035;-59
2021/03/15 04:10:47;;;;;;;;;;;;;;;19.30;43.23;101343.41;3084951;28;115858;-59
2021/03/15 04:12:20;;;;;;;;;;;;;;;19.28;43.13;101343.69;3104625;28;114184;-60
2021/03/15 04:13:54;;;;;;;;;;;;;;;19.28;43.11;101340.06;3087131;28;116000;-60
2021/03/15 04:15:26;;;;;;;;;;;;;;;19.28;43.08;101340.88;3105591;27;116919;-59
2021/03/15 04:17:01;;;;;;;;;;;;;;;19.27;42.98;101333.59;3085734;28;115385;-59
2021/03/15 04:18:35;;;;;;;;;;;;;;;19.26;43.07;101343.13;3106198;27;117816;-59
2021/03/15 04:20:08;;;;;;;;;;;;;;;19.26;42.93;101342.31;3093247;28;115783;-60
2021/03/15 04:21:40;;;;;;;;;;;;;;;19.26;43.00;101347.94;3086165;28;115718;-59
2021/03/15 04:23:13;;;;;;;;;;;;;;;19.25;42.69;101347.09;3109137;27;115400;-59
2021/03/15 04:24:45;;;;;;;;;;;;;;;19.24;42.94;101347.38;3091449;28;115829;-59
2021/03/15 04:26:16;;;;;;;;;;;;;;;19.23;42.63;101349.31;3088795;28;115909;-60
2021/03/15 04:27:51;;;;;;;;;;;;;;;19.22;42.74;101361.66;3085867;28;115751;-60
2021/03/15 04:29:22;;;;;;;;;;;;;;;19.21;42.74;101346.00;3096891;28;116243;-60
2021/03/15 04:30:53;;;;;;;;;;;;;;;19.22;43.14;101352.41;3085965;28;115294;-60
2021/03/15 04:32:26;;;;;;;;;;;;;;;19.21;43.14;101347.94;3094776;28;115826;-60
2021/03/15 04:33:58;;;;;;;;;;;;;;;19.21;42.92;101345.16;3088105;28;115728;-60
2021/03/15 04:35:30;;;;;;;;;;;;;;;19.20;43.18;101361.13;3084077;28;116688;-59
2021/03/15 04:37:02;;;;;;;;;;;;;;;19.21;42.94;101353.56;3097234;28;116369;-60
2021/03/15 04:38:35;;;;;;;;;;;;;;;19.19;42.72;101359.44;3080323;28;114623;-59
2021/03/15 04:40:07;;;;;;;;;;;;;;;19.19;42.92;101358.59;3089011;28;116404;-59
2021/03/15 04:41:38;;;;;;;;;;;;;;;19.19;42.76;101373.44;3092328;28;113797;-60
2021/03/15 04:43:09;;;;;;;;;;;;;;;19.19;42.77;101381.00;3091802;28;113992;-60
2021/03/15 04:44:41;;;;;;;;;;;;;;;19.18;42.62;101388.56;3092281;28;113869;-60
2021/03/15 04:46:14;;;;;;;;;;;;;;;19.16;42.80;101388.03;3104035;28;113860;-59
2021/03/15 04:47:46;;;;;;;;;;;;;;;19.15;42.88;101382.72;3094617;28;113994;-59
2021/03/15 04:49:18;;;;;;;;;;;;;;;19.16;42.71;101378.78;3092406;28;113924;-59
2021/03/15 04:50:50;;;;;;;;;;;;;;;19.15;42.64;101377.94;3107357;27;113919;-59
2021/03/15 04:52:21;;;;;;;;;;;;;;;19.14;42.62;101386.63;3086676;28;113993;-59
2021/03/15 04:53:53;;;;;;;;;;;;;;;19.13;42.75;101387.75;3086174;28;113740;-59
2021/03/15 04:55:26;;;;;;;;;;;;;;;19.12;42.53;101395.34;3075318;28;113995;-58
2021/03/15 04:56:57;;;;;;;;;;;;;;;19.11;42.55;101393.66;3086341;28;113603;-58
2021/03/15 04:58:29;;;;;;;;;;;;;;;19.12;42.73;101386.94;3085574;28;114008;-60
2021/03/15 05:00:01;;;;;;;;;;;;;;;19.11;42.74;101393.66;3084943;28;113918;-60
2021/03/15 05:01:34;;;;;;;;;;;;;;;19.09;42.99;101393.94;3089355;28;113679;-59
2021/03/15 05:03:06;;;;;;;;;;;;;;;19.13;42.88;101410.16;3097362;28;115660;-59
2021/03/15 05:04:38;;;;;;;;;;;;;;;19.10;42.95;101412.44;3084720;28;115276;-59
2021/03/15 05:06:09;;;;;;;;;;;;;;;19.11;42.85;101407.66;3105425;27;116431;-60
2021/03/15 05:07:41;;;;;;;;;;;;;;;19.10;42.72;101406.81;3086039;27;114685;-60
2021/03/15 05:09:13;;;;;;;;;;;;;;;19.08;42.94;101411.03;3086610;28;115087;-60
2021/03/15 05:10:45;;;;;;;;;;;;;;;19.09;42.84;101410.75;3090383;28;114105;-59
2021/03/15 05:12:18;;;;;;;;;;;;;;;19.08;42.73;101409.06;3094786;28;114992;-59
2021/03/15 05:13:50;;;;;;;;;;;;;;;19.04;43.08;101402.38;3085706;28;115158;-60
2021/03/15 05:15:21;;;;;;;;;;;;;;;19.05;42.92;101412.44;3109350;27;115432;-59
2021/03/15 05:16:52;;;;;;;;;;;;;;;19.03;42.89;101411.06;3099301;27;114542;-59
2021/03/15 05:18:24;;;;;;;;;;;;;;;19.02;42.91;101406.59;3097023;28;115418;-59
2021/03/15 05:19:56;;;;;;;;;;;;;;;19.02;43.08;101413.03;3084802;28;115195;-59
2021/03/15 05:21:28;;;;;;;;;;;;;;;19.02;43.00;101415.84;3088159;28;115708;-59
2021/03/15 05:22:59;;;;;;;;;;;;;;;19.02;42.71;101410.22;3091701;28;115186;-59
2021/03/15 05:24:31;;;;;;;;;;;;;;;19.01;43.08;101418.91;3085699;28;115711;-59
2021/03/15 05:26:02;;;;;;;;;;;;;;;19.00;42.96;101429.28;3090542;28;115829;-59
2021/03/15 05:27:34;;;;;;;;;;;;;;;19.00;42.99;101426.47;3099057;28;115686;-59
2021/03/15 05:29:07;;;;;;;;;;;;;;;19.01;42.83;101436.56;3114469;27;115585;-59
2021/03/15 05:30:39;;;;;;;;;;;;;;;18.98;43.18;101425.94;3094190;28;115831;-59
2021/03/15 05:32:13;;;;;;;;;;;;;;;18.99;43.04;101419.19;3087158;28;115357;-59
2021/03/15 05:33:45;;;;;;;;;;;;;;;18.96;43.16;101421.72;3106349;27;115696;-59
2021/03/15 05:35:17;;;;;;;;;;;;;;;18.97;43.02;101427.06;3102428;27;115717;-59
2021/03/15 05:36:50;;;;;;;;;;;;;;;18.99;43.10;101432.34;3082350;28;115800;-59
2021/03/15 05:38:22;;;;;;;;;;;;;;;18.96;43.08;101433.78;3102029;27;114563;-59
2021/03/15 05:39:53;;;;;;;;;;;;;;;18.96;43.15;101441.31;3094824;27;116476;-59
2021/03/15 05:41:36;;;;;;;;;;;;;;;18.97;43.08;101443.00;3087015;28;115876;-59
2021/03/15 05:43:17;;;;;;;;;;;;;;;18.96;43.02;101444.13;3090164;28;115682;-59
2021/03/15 05:44:57;;;;;;;;;;;;;;;18.96;43.22;101444.13;3090784;28;115728;-60
2021/03/15 05:46:42;;;;;;;;;;;;;;;18.96;43.13;101442.16;3093976;28;114707;-59
2021/03/15 05:48:23;;;;;;;;;;;;;;;18.99;43.23;101443.53;3091538;28;113686;-59
2021/03/15 05:50:03;;;;;;;;;;;;;;;19.03;43.51;101445.50;3085782;28;113896;-59
2021/03/15 05:51:51;;;;;;;;;;;;;;;19.06;43.73;101442.13;3087476;28;114196;-59
2021/03/15 05:53:32;;;;;;;;;;;;;;;19.10;43.57;101450.78;3090885;28;114064;-59
2021/03/15 05:55:13;;;;;;;;;;;;;;;19.13;43.80;101449.38;3088303;28;113735;-59
2021/03/15 05:56:53;;;;;;;;;;;;;;;19.15;43.77;101447.13;3093794;28;113847;-59
2021/03/15 05:58:34;;;;;;;;;;;;;;;19.17;43.42;101448.50;3090919;28;113858;-60
2021/03/15 06:00:14;;;;;;;;;;;;;;;19.21;43.44;101466.44;3109854;27;114121;-59
2021/03/15 06:01:55;;;;;;;;;;;;;;;19.24;43.21;101453.81;3091878;27;113895;-59
2021/03/15 06:03:36;;;;;;;;;;;;;;;19.28;43.24;101464.16;3115863;27;113732;-59
2021/03/15 06:05:15;;;;;;;;;;;;;;;19.33;43.85;101466.94;3088947;28;113849;-60
2021/03/15 06:06:47;;;;;;;;;;;;;;;19.37;44.23;101468.03;3092700;28;113781;-59
2021/03/15 06:08:20;;;;;;;;;;;;;;;19.41;44.56;101459.88;3089863;28;113789;-59
2021/03/15 06:10:01;;;;;;;;;;;;;;;19.44;44.42;101464.97;3103199;28;114045;-59
2021/03/15 06:11:36;;;;;;;;;;;;;;;19.49;44.39;101471.34;3080535;28;115548;-60
2021/03/15 06:13:12;;;;;;;;;;;;;;;19.53;44.40;101466.84;3093714;28;115000;-60
2021/03/15 06:14:43;;;;;;;;;;;;;;;19.57;44.45;101469.94;3099287;28;116252;-59
2021/03/15 06:16:15;;;;;;;;;;;;;;;19.61;44.40;101468.22;3090215;28;115256;-59
2021/03/15 06:17:47;;;;;;;;;;;;;;;19.65;44.34;101477.72;3088761;28;115167;-59
2021/03/15 06:19:19;;;;;;;;;;;;;;;19.71;44.34;101475.75;3089336;28;115200;-60
2021/03/15 06:20:50;;;;;;;;;;;;;;;19.74;44.26;101467.56;3104281;27;115674;-59
2021/03/15 06:22:23;;;;;;;;;;;;;;;19.80;44.31;101480.44;3089162;28;115120;-59
2021/03/15 06:23:57;;;;;;;;;;;;;;;19.85;43.65;101480.38;3095937;28;114531;-59
2021/03/15 06:25:29;;;;;;;;;;;;;;;19.91;43.95;101478.38;3093887;28;115077;-59
2021/03/15 06:27:03;;;;;;;;;;;;;;;19.94;43.22;101484.25;3097195;28;115076;-59
2021/03/15 06:28:35;;;;;;;;;;;;;;;20.01;43.09;101486.72;3085448;28;115007;-60
2021/03/15 06:30:06;;;;;;;;;;;;;;;20.07;43.39;101490.34;3086617;28;115169;-59
2021/03/15 06:31:39;;;;;;;;;;;;;;;20.13;43.33;101495.59;3079115;28;115953;-59
2021/03/15 06:33:11;;;;;;;;;;;;;;;20.17;42.87;101491.09;3085262;28;115653;-59
2021/03/15 06:34:43;;;;;;;;;;;;;;;20.21;43.05;101497.81;3107576;27;115735;-59
2021/03/15 06:36:15;;;;;;;;;;;;;;;20.26;43.10;101499.75;3108558;28;116008;-59
2021/03/15 06:37:46;;;;;;;;;;;;;;;20.31;42.50;101506.16;3114659;27;117908;-59
2021/03/15 06:39:19;;;;;;;;;;;;;;;20.35;42.79;101504.44;3094387;28;116659;-59
2021/03/15 06:40:52;;;;;;;;;;;;;;;20.39;42.65;101501.91;3086425;28;114784;-59
2021/03/15 06:42:27;;;;;;;;;;;;;;;20.42;42.46;101504.09;3091767;28;117139;-59
2021/03/15 06:43:58;;;;;;;;;;;;;;;20.46;42.68;101507.16;3085675;28;115041;-59
2021/03/15 06:45:30;;;;;;;;;;;;;;;20.48;42.57;101514.16;3086236;28;115580;-60
2021/03/15 06:47:03;;;;;;;;;;;;;;;20.50;42.52;101520.31;3110910;28;115670;-59
2021/03/15 06:48:34;;;;;;;;;;;;;;;20.53;42.20;101524.50;3093666;27;116156;-59
2021/03/15 06:50:06;;;;;;;;;;;;;;;20.55;42.88;101525.88;3086897;28;116029;-60
2021/03/15 06:51:37;;;;;;;;;;;;;;;20.57;42.33;101526.44;3109119;27;114994;-59
2021/03/15 06:53:08;;;;;;;;;;;;;;;20.59;42.56;101524.16;3106188;27;115852;-60
2021/03/15 06:54:39;;;;;;;;;;;;;;;20.61;42.36;101524.72;3081829;28;113780;-59
2021/03/15 06:56:12;;;;;;;;;;;;;;;20.64;42.38;101534.50;3078813;28;114213;-59
2021/03/15 06:57:43;;;;;;;;;;;;;;;20.64;42.46;101535.34;3081084;28;114125;-59
2021/03/15 06:59:14;;;;;;;;;;;;;;;20.65;42.33;101539.84;3097152;28;114140;-60
2021/03/15 07:00:47;;;;;;;;;;;;;;;20.69;42.83;101543.72;3108924;28;113838;-59
2021/03/15 07:02:28;;;;;;;;;;;;;;;20.70;43.40;101550.19;3097273;28;113889;-60
2021/03/15 07:04:08;;;;;;;;;;;;;;;20.70;43.26;101553.84;3089209;28;115673;-59
2021/03/15 07:05:39;;;;;;;;;;;;;;;20.70;43.26;101559.44;3097864;28;113935;-59
2021/03/15 07:07:11;;;;;;;;;;;;;;;20.71;43.34;101549.06;3085331;28;114402;-61
2021/03/15 07:08:42;;;;;;;;;;;;;;;20.72;43.11;101551.56;3086110;28;113749;-60
2021/03/15 07:10:32;;;;;;;;;;;;;;;20.72;43.19;101557.16;3090744;28;113963;-60
2021/03/15 07:12:04;;;;;;;;;;;;;;;20.72;43.03;101561.94;3091267;28;114232;-60
2021/03/15 07:13:37;;;;;;;;;;;;;;;20.71;42.84;101558.31;3095176;28;113742;-60
2021/03/15 07:15:09;;;;;;;;;;;;;;;20.72;42.48;101567.56;3114710;27;113889;-59
2021/03/15 07:16:40;;;;;;;;;;;;;;;20.73;42.44;101567.28;3093668;28;113857;-59
2021/03/15 07:18:13;;;;;;;;;;;;;;;20.73;42.34;101574.84;3085825;28;114031;-59
2021/03/15 07:19:44;;;;;;;;;;;;;;;20.73;42.44;101577.66;3086810;28;115167;-59
2021/03/15 07:21:28;;;;;;;;;;;;;;;20.74;42.42;101582.16;3087016;28;115190;-59
2021/03/15 07:23:00;;;;;;;;;;;;;;;20.73;42.56;101591.69;3103296;27;114222;-59
2021/03/15 07:24:31;;;;;;;;;;;;;;;20.73;42.53;101586.09;3093258;27;115244;-59
2021/03/15 07:26:12;;;;;;;;;;;;;;;20.74;42.63;101584.97;3097031;28;115058;-59
2021/03/15 07:27:45;;;;;;;;;;;;;;;20.73;42.37;101592.53;3088587;28;115113;-60
2021/03/15 07:29:17;;;;;;;;;;;;;;;20.73;42.32;101594.50;3110027;27;115830;-60
2021/03/15 07:30:48;;;;;;;;;;;;;;;20.72;42.30;101593.66;3101462;28;115330;-59
2021/03/15 07:32:37;;;;;;;;;;;;;;;20.73;42.19;101595.34;3089849;28;115429;-59
2021/03/15 07:34:10;;;;;;;;;;;;;;;20.73;42.32;101592.53;3103512;27;115152;-59
2021/03/15 07:35:41;;;;;;;;;;;;;;;20.72;42.18;101596.47;3089641;28;114859;-59
2021/03/15 07:37:12;;;;;;;;;;;;;;;20.71;42.28;101600.44;3101408;27;114862;-59
2021/03/15 07:38:44;;;;;;;;;;;;;;;20.71;42.12;101597.63;3098415;28;114956;-60
2021/03/15 07:40:24;;;;;;;;;;;;;;;20.71;42.14;101594.81;3086644;28;115555;-60
2021/03/15 07:41:57;;;;;;;;;;;;;;;20.71;42.53;101608.03;3080297;28;115756;-59
2021/03/15 07:43:28;;;;;;;;;;;;;;;20.71;42.56;101608.03;3097869;28;116303;-60
2021/03/15 07:45:00;;;;;;;;;;;;;;;20.69;42.76;101611.13;3088294;28;115560;-60
2021/03/15 07:46:31;;;;;;;;;;;;;;;20.69;42.45;101613.94;3086010;28;115784;-60
2021/03/15 07:48:12;;;;;;;;;;;;;;;20.69;42.33;101613.09;3085691;28;115706;-60
2021/03/15 07:49:48;;;;;;;;;;;;;;;20.70;42.54;101617.56;3084751;28;116915;-60
2021/03/15 07:51:27;;;;;;;;;;;;;;;20.68;42.63;101622.63;3085504;28;115897;-60
2021/03/15 07:52:58;;;;;;;;;;;;;;;20.68;42.19;101631.06;3103107;28;115689;-60